Aviation Digital Data Service (ADDS)

Output produced by METARs form (1633 UTC 01 April 2015)
found at http://aviationweather.gov/adds/metars/
 
KLCH 011606Z AUTO 19009KT 10SM SCT021 SCT030 BKN043 25/19 A3006 RMK AO2 T02500194